Time,TemperatureF,DewpointF,PressureIn,WindDirection,WindDirectionDegrees,WindSpeedMPH,WindSpeedGustMPH,Humidity,HourlyPrecipIn,Conditions,Clouds,dailyrainin,SoftwareType,DateUTC
2013-05-14 00:00:00,44.5,32.3,30.02,NW,312,0.1,1.1,62,0.00,-RA,OVC,0.00,WeatherDisplay:10.37,2013-05-14 04:00:00,
2013-05-14 00:01:00,44.5,32.7,30.02,NW,312,0.0,1.1,63,0.00,-RA,OVC,0.00,WeatherDisplay:10.37,2013-05-14 04:01:00,
2013-05-14 00:02:00,44.6,32.8,30.01,NW,311,0.0,0.0,63,0.00,-RA,OVC,0.00,WeatherDisplay:10.37,2013-05-14 04:02:00,
2013-05-14 00:07:00,44.4,33.0,30.01,NW,312,0.0,0.0,64,0.00,-RA,OVC,0.00,WeatherDisplay:10.37,2013-05-14 04:07:00,
2013-05-14 00:12:00,44.4,33.7,30.01,NW,311,0.0,0.0,66,0.00,-RA,OVC,0.00,WeatherDisplay:10.37,2013-05-14 04:12:00,
2013-05-14 00:17:00,44.5,33.5,30.01,NW,311,0.0,0.0,65,0.00,-RA,OVC,0.00,WeatherDisplay:10.37,2013-05-14 04:17:00,
2013-05-14 00:22:00,44.3,32.5,30.01,NW,311,0.0,0.0,63,0.00,-RA,OVC,0.00,WeatherDisplay:10.37,2013-05-14 04:22:00,
2013-05-14 00:27:00,44.4,32.2,30.01,NW,311,0.1,0.0,62,0.00,-RA,OVC,0.00,WeatherDisplay:10.37,2013-05-14 04:27:00,
2013-05-14 00:32:00,44.6,31.6,30.01,NW,312,0.2,1.1,60,0.00,-RA,OVC,0.00,WeatherDisplay:10.37,2013-05-14 04:32:00,
2013-05-14 00:37:00,44.8,32.2,30.01,NW,312,0.8,2.3,61,0.00,-RA,OVC,0.00,WeatherDisplay:10.37,2013-05-14 04:37:00,
2013-05-14 00:42:00,44.9,32.7,30.02,NW,312,0.0,0.0,62,0.00,-RA,OVC,0.00,WeatherDisplay:10.37,2013-05-14 04:42:00,
2013-05-14 00:47:00,45.1,32.8,30.02,NW,312,0.5,2.3,62,0.00,-RA,OVC,0.00,WeatherDisplay:10.37,2013-05-14 04:47:00,
2013-05-14 00:52:00,44.8,33.4,30.02,NW,312,0.0,0.0,64,0.00,-RA,OVC,0.00,WeatherDisplay:10.37,2013-05-14 04:52:00,
2013-05-14 00:57:00,45.0,33.5,30.02,NW,312,0.0,0.0,64,0.00,-RA,OVC,0.00,WeatherDisplay:10.37,2013-05-14 04:57:00,
2013-05-14 01:02:00,44.9,32.3,30.02,NW,312,0.0,0.0,61,0.00,-RA,OVC,0.00,WeatherDisplay:10.37,2013-05-14 05:02:00,
2013-05-14 01:07:00,44.8,32.6,30.02,NW,312,0.0,0.0,62,0.00,-RA,OVC,0.00,WeatherDisplay:10.37,2013-05-14 05:07:00,
2013-05-14 01:12:00,44.7,32.1,30.03,NW,312,1.5,3.5,61,0.00,-RA,OVC,0.00,WeatherDisplay:10.37,2013-05-14 05:12:00,
2013-05-14 01:17:00,44.8,32.6,30.02,NW,312,0.0,0.0,62,0.00,-RA,OVC,0.00,WeatherDisplay:10.37,2013-05-14 05:17:00,
2013-05-14 01:22:00,44.9,31.8,30.02,NW,312,0.0,0.0,60,0.00,-RA,OVC,0.00,WeatherDisplay:10.37,2013-05-14 05:22:00,
2013-05-14 01:27:00,44.9,31.8,30.02,NW,312,0.0,0.0,60,0.00,-RA,OVC,0.00,WeatherDisplay:10.37,2013-05-14 05:27:00,
2013-05-14 01:32:00,45.0,32.8,30.02,NW,312,0.0,0.0,62,0.00,-RA,OVC,0.00,WeatherDisplay:10.37,2013-05-14 05:32:00,
2013-05-14 01:37:00,44.9,32.7,30.02,NW,312,0.6,0.0,62,0.00,-RA,OVC,0.00,WeatherDisplay:10.37,2013-05-14 05:37:00,
2013-05-14 01:42:00,44.8,33.0,30.02,NW,312,0.0,1.1,63,0.00,-RA,OVC,0.00,WeatherDisplay:10.37,2013-05-14 05:42:00,
2013-05-14 01:47:00,44.8,31.8,30.02,NW,312,0.0,0.0,60,0.00,-RA,OVC,0.00,WeatherDisplay:10.37,2013-05-14 05:47:00,
2013-05-14 01:52:00,44.7,32.5,30.02,NW,312,0.3,1.0,62,0.00,-RA,OVC,0.00,WeatherDisplay:10.37,2013-05-14 05:52:00,
2013-05-14 01:57:00,44.7,31.2,30.02,NW,312,0.0,0.0,59,0.00,-RA,OVC,0.00,WeatherDisplay:10.37,2013-05-14 05:57:00,
2013-05-14 02:02:00,45.0,31.5,30.02,NW,312,0.7,2.3,59,0.00,-RA,OVC,0.00,WeatherDisplay:10.37,2013-05-14 06:02:00,
2013-05-14 02:07:00,44.9,31.4,30.02,NW,312,0.7,3.5,59,0.00,-RA,OVC,0.00,WeatherDisplay:10.37,2013-05-14 06:07:00,
2013-05-14 02:12:00,45.0,31.5,30.02,NW,312,0.4,2.3,59,0.00,-RA,OVC,0.00,WeatherDisplay:10.37,2013-05-14 06:12:00,
2013-05-14 02:17:00,44.8,30.9,30.02,NW,312,1.4,2.3,58,0.00,-RA,OVC,0.00,WeatherDisplay:10.37,2013-05-14 06:17:00,
2013-05-14 02:22:00,44.9,31.4,30.02,NW,312,0.1,0.0,59,0.00,-RA,OVC,0.00,WeatherDisplay:10.37,2013-05-14 06:22:00,
2013-05-14 02:27:00,45.0,31.5,30.02,NW,312,0.3,1.1,59,0.00,-RA,OVC,0.00,WeatherDisplay:10.37,2013-05-14 06:27:00,
2013-05-14 02:32:00,44.8,30.9,30.01,NW,313,1.0,2.3,58,0.00,-RA,OVC,0.00,WeatherDisplay:10.37,2013-05-14 06:32:00,
2013-05-14 02:37:00,44.9,31.0,30.01,NW,313,0.5,2.3,58,0.00,-RA,OVC,0.00,WeatherDisplay:10.37,2013-05-14 06:37:00,
2013-05-14 02:42:00,44.7,30.4,30.01,NW,326,2.5,4.6,57,0.00,-RA,OVC,0.00,WeatherDisplay:10.37,2013-05-14 06:42:00,
2013-05-14 02:47:00,44.7,30.8,30.01,NNW,327,0.6,3.5,58,0.00,-RA,OVC,0.00,WeatherDisplay:10.37,2013-05-14 06:47:00,
2013-05-14 02:52:00,44.5,30.6,30.01,NNW,327,0.0,1.1,58,0.00,-RA,OVC,0.00,WeatherDisplay:10.37,2013-05-14 06:52:00,
2013-05-14 02:57:00,44.3,30.4,30.01,NNW,327,0.0,1.1,58,0.00,-RA,OVC,0.00,WeatherDisplay:10.37,2013-05-14 06:57:00,
2013-05-14 03:02:00,44.1,31.1,30.01,NNW,327,0.3,0.0,60,0.00,-RA,OVC,0.00,WeatherDisplay:10.37,2013-05-14 07:02:00,
2013-05-14 03:07:00,43.9,30.9,30.01,NW,326,0.0,1.1,60,0.00,-RA,OVC,0.00,WeatherDisplay:10.37,2013-05-14 07:07:00,
2013-05-14 03:12:00,43.6,31.0,30.01,NNW,327,0.0,0.0,61,0.00,-RA,OVC,0.00,WeatherDisplay:10.37,2013-05-14 07:12:00,
2013-05-14 03:17:00,43.2,31.1,30.01,NNW,327,0.0,0.0,62,0.00,-RA,OVC,0.00,WeatherDisplay:10.37,2013-05-14 07:17:00,
2013-05-14 03:22:00,42.8,30.7,30.01,NNW,327,0.5,0.0,62,0.00,-RA,OVC,0.00,WeatherDisplay:10.37,2013-05-14 07:22:00,
2013-05-14 03:27:00,42.4,30.7,30.01,NNW,327,0.7,1.1,63,0.00,-RA,OVC,0.00,WeatherDisplay:10.37,2013-05-14 07:27:00,
2013-05-14 03:32:00,42.1,30.8,30.01,NW,326,0.0,0.0,64,0.00,-RA,OVC,0.00,WeatherDisplay:10.37,2013-05-14 07:32:00,
2013-05-14 03:37:00,41.8,30.9,30.01,NNW,327,0.0,0.0,65,0.00,-RA,OVC,0.00,WeatherDisplay:10.37,2013-05-14 07:37:00,
2013-05-14 03:42:00,41.3,30.4,30.01,NNW,327,0.0,0.0,65,0.00,-RA,OVC,0.00,WeatherDisplay:10.37,2013-05-14 07:42:00,
2013-05-14 03:47:00,41.2,30.7,30.01,NNW,327,0.0,0.0,66,0.00,-RA,OVC,0.00,WeatherDisplay:10.37,2013-05-14 07:47:00,
2013-05-14 03:52:00,40.9,30.8,30.01,NNW,327,0.0,1.1,67,0.00,-RA,OVC,0.00,WeatherDisplay:10.37,2013-05-14 07:52:00,
2013-05-14 03:57:00,40.6,30.5,30.01,NNW,327,0.3,1.1,67,0.00,-RA,OVC,0.00,WeatherDisplay:10.37,2013-05-14 07:57:00,
2013-05-14 04:02:00,40.4,31.0,30.01,NNW,327,0.8,1.1,69,0.00,-RA,OVC,0.00,WeatherDisplay:10.37,2013-05-14 08:02:00,
2013-05-14 04:07:00,40.3,30.6,30.01,NNW,327,0.7,2.3,68,0.00,-RA,OVC,0.00,WeatherDisplay:10.37,2013-05-14 08:07:00,
2013-05-14 04:12:00,39.8,30.5,30.01,NNW,327,0.0,0.0,69,0.00,-RA,OVC,0.00,WeatherDisplay:10.37,2013-05-14 08:12:00,
2013-05-14 04:17:00,39.7,30.7,30.01,NNW,327,0.1,1.1,70,0.00,-RA,OVC,0.00,WeatherDisplay:10.37,2013-05-14 08:17:00,
2013-05-14 04:22:00,39.6,31.0,30.01,NW,326,0.3,1.0,71,0.00,-RA,OVC,0.00,WeatherDisplay:10.37,2013-05-14 08:22:00,
2013-05-14 04:27:00,39.6,31.0,30.01,NNW,327,0.5,0.0,71,0.00,-RA,OVC,0.00,WeatherDisplay:10.37,2013-05-14 08:27:00,
2013-05-14 04:32:00,39.5,30.9,30.01,NNW,327,0.0,0.0,71,0.00,-RA,OVC,0.00,WeatherDisplay:10.37,2013-05-14 08:32:00,
2013-05-14 04:37:00,39.3,30.7,30.01,NNW,327,0.0,1.1,71,0.00,-RA,OVC,0.00,WeatherDisplay:10.37,2013-05-14 08:37:00,
2013-05-14 04:42:00,39.1,30.5,30.01,NW,326,0.6,2.3,71,0.00,-RA,OVC,0.00,WeatherDisplay:10.37,2013-05-14 08:42:00,
2013-05-14 04:47:00,38.9,30.6,30.01,NNW,327,0.0,0.0,72,0.00,-RA,OVC,0.00,WeatherDisplay:10.37,2013-05-14 08:47:00,
2013-05-14 04:52:00,38.7,30.8,30.01,NNW,327,0.5,1.1,73,0.00,-RA,OVC,0.00,WeatherDisplay:10.37,2013-05-14 08:52:00,
2013-05-14 04:57:00,38.5,30.6,30.02,NNW,327,0.0,0.0,73,0.00,-RA,OVC,0.00,WeatherDisplay:10.37,2013-05-14 08:57:00,
2013-05-14 05:02:00,38.3,30.4,30.02,NNW,327,0.0,0.0,73,0.00,-RA,OVC,0.00,WeatherDisplay:10.37,2013-05-14 09:02:00,
2013-05-14 05:07:00,38.3,30.4,30.02,NNW,327,0.0,0.0,73,0.00,-RA,OVC,0.00,WeatherDisplay:10.37,2013-05-14 09:07:00,
2013-05-14 05:12:00,38.3,30.4,30.02,NNW,327,0.0,0.0,73,0.00,-RA,OVC,0.00,WeatherDisplay:10.37,2013-05-14 09:12:00,
2013-05-14 05:17:00,38.3,30.7,30.02,NNW,327,0.0,0.0,74,0.00,-RA,OVC,0.00,WeatherDisplay:10.37,2013-05-14 09:17:00,
2013-05-14 05:22:00,38.6,31.0,30.02,NNW,327,0.0,0.0,74,0.00,-RA,OVC,0.00,WeatherDisplay:10.37,2013-05-14 09:22:00,
2013-05-14 05:28:00,38.7,31.1,30.03,NNW,327,0.0,0.0,74,0.00,-RA,OVC,0.00,WeatherDisplay:10.37,2013-05-14 09:28:00,
2013-05-14 05:33:00,39.1,31.2,30.03,NNW,327,0.0,0.0,73,0.00,-RA,OVC,0.00,WeatherDisplay:10.37,2013-05-14 09:33:00,
2013-05-14 05:38:00,39.4,31.5,30.03,NNW,327,0.1,0.0,73,0.00,-RA,OVC,0.00,WeatherDisplay:10.37,2013-05-14 09:38:00,
2013-05-14 05:43:00,39.7,31.1,30.03,WNW,300,0.5,2.3,71,0.00,-RA,OVC,0.00,WeatherDisplay:10.37,2013-05-14 09:43:00,
2013-05-14 05:48:00,40.2,31.2,30.03,NW,308,0.0,0.0,70,0.00,-RA,OVC,0.00,WeatherDisplay:10.37,2013-05-14 09:48:00,
2013-05-14 05:53:00,40.5,31.1,30.03,NW,308,0.0,0.0,69,0.00,-RA,OVC,0.00,WeatherDisplay:10.37,2013-05-14 09:53:00,
2013-05-14 05:58:00,40.7,31.3,30.04,NW,308,0.1,1.1,69,0.00,-RA,OVC,0.00,WeatherDisplay:10.37,2013-05-14 09:58:00,
2013-05-14 06:03:00,41.1,31.0,30.04,NW,308,1.1,3.5,67,0.00,-RA,OVC,0.00,WeatherDisplay:10.37,2013-05-14 10:03:00,
2013-05-14 06:08:00,41.4,31.3,30.03,NW,308,0.1,0.0,67,0.00,-RA,OVC,0.00,WeatherDisplay:10.37,2013-05-14 10:08:00,
2013-05-14 06:13:00,41.7,31.5,30.04,NW,308,1.0,2.3,67,0.00,-RA,OVC,0.00,WeatherDisplay:10.37,2013-05-14 10:13:00,
2013-05-14 06:18:00,41.9,31.4,30.04,NW,308,1.6,3.5,66,0.00,-RA,OVC,0.00,WeatherDisplay:10.37,2013-05-14 10:18:00,
2013-05-14 06:23:00,42.0,31.5,30.04,NW,308,1.5,3.5,66,0.00,-RA,OVC,0.00,WeatherDisplay:10.37,2013-05-14 10:23:00,
2013-05-14 06:28:00,42.2,31.3,30.04,NW,308,2.6,3.5,65,0.00,-RA,OVC,0.00,WeatherDisplay:10.37,2013-05-14 10:28:00,
2013-05-14 06:33:00,42.5,31.6,30.04,NW,309,0.7,2.3,65,0.00,-RA,OVC,0.00,WeatherDisplay:10.37,2013-05-14 10:33:00,
2013-05-14 06:38:00,42.6,31.7,30.04,NW,309,0.6,2.3,65,0.00,-RA,OVC,0.00,WeatherDisplay:10.37,2013-05-14 10:38:00,
2013-05-14 06:43:00,42.8,31.8,30.04,NW,309,2.0,3.5,65,0.00,-RA,OVC,0.00,WeatherDisplay:10.37,2013-05-14 10:43:00,
2013-05-14 06:48:00,42.9,31.6,30.04,NW,309,0.4,1.1,64,0.00,-RA,OVC,0.00,WeatherDisplay:10.37,2013-05-14 10:48:00,
2013-05-14 06:53:00,43.1,32.1,30.05,NW,309,1.6,2.3,65,0.00,-RA,OVC,0.00,WeatherDisplay:10.37,2013-05-14 10:53:00,
2013-05-14 06:58:00,43.3,31.9,30.05,NW,309,1.4,3.5,64,0.00,-RA,OVC,0.00,WeatherDisplay:10.37,2013-05-14 10:58:00,
2013-05-14 07:03:00,43.4,32.0,30.05,NW,309,2.1,4.6,64,0.00,-RA,OVC,0.00,WeatherDisplay:10.37,2013-05-14 11:03:00,
2013-05-14 07:08:00,43.8,32.0,30.05,NW,315,2.5,4.6,63,0.00,-RA,OVC,0.00,WeatherDisplay:10.37,2013-05-14 11:08:00,
2013-05-14 07:13:00,44.1,32.3,30.05,NW,315,2.5,4.0,63,0.00,-RA,OVC,0.00,WeatherDisplay:10.37,2013-05-14 11:13:00,
2013-05-14 07:18:00,44.5,33.1,30.06,NW,315,1.3,2.3,64,0.00,-RA,OVC,0.00,WeatherDisplay:10.37,2013-05-14 11:18:00,
2013-05-14 07:23:00,44.9,32.7,30.06,NW,315,1.1,2.3,62,0.00,-RA,OVC,0.00,WeatherDisplay:10.37,2013-05-14 11:23:00,
2013-05-14 07:28:00,45.4,33.1,30.06,NW,315,1.0,2.3,62,0.00,-RA,OVC,0.00,WeatherDisplay:10.37,2013-05-14 11:28:00,
2013-05-14 07:33:00,45.9,32.8,30.06,North,3,3.8,5.8,60,0.00,-RA,OVC,0.00,WeatherDisplay:10.37,2013-05-14 11:33:00,
2013-05-14 07:38:00,45.9,32.4,30.06,North,0,2.9,3.5,59,0.00,-RA,OVC,0.00,WeatherDisplay:10.37,2013-05-14 11:38:00,
2013-05-14 07:43:00,46.0,32.5,30.05,NNW,340,2.9,4.6,59,0.00,-RA,OVC,0.00,WeatherDisplay:10.37,2013-05-14 11:43:00,
2013-05-14 07:48:00,46.1,32.6,30.06,NNW,345,3.4,5.8,59,0.00,-RA,OVC,0.00,WeatherDisplay:10.37,2013-05-14 11:48:00,
2013-05-14 07:53:00,46.6,32.6,30.05,North,359,2.9,5.8,58,0.00,-RA,OVC,0.00,WeatherDisplay:10.37,2013-05-14 11:53:00,
2013-05-14 07:58:00,46.9,32.9,30.05,North,357,2.9,5.8,58,0.00,-RA,OVC,0.00,WeatherDisplay:10.37,2013-05-14 11:58:00,
2013-05-14 08:03:00,47.7,32.8,30.06,NNW,346,7.0,11.5,56,0.00,-RA,OVC,0.00,WeatherDisplay:10.37,2013-05-14 12:03:00,
2013-05-14 08:08:00,48.4,33.0,30.06,North,354,2.8,6.9,55,0.00,-RA,OVC,0.00,WeatherDisplay:10.37,2013-05-14 12:08:00,
2013-05-14 08:13:00,49.1,32.7,30.05,North,359,4.1,5.8,53,0.00,-RA,OVC,0.00,WeatherDisplay:10.37,2013-05-14 12:13:00,
2013-05-14 08:18:00,49.7,33.2,30.06,North,4,2.9,3.5,53,0.00,-RA,OVC,0.00,WeatherDisplay:10.37,2013-05-14 12:18:00,
2013-05-14 08:23:00,49.9,32.0,30.05,North,353,3.2,10.4,50,0.00,-RA,OVC,0.00,WeatherDisplay:10.37,2013-05-14 12:23:00,
2013-05-14 08:28:00,50.4,31.9,30.05,NNW,332,5.5,6.9,49,0.00,-RA,OVC,0.00,WeatherDisplay:10.37,2013-05-14 12:28:00,
2013-05-14 08:33:00,51.0,32.0,30.05,NW,322,2.7,3.5,48,0.00,-RA,OVC,0.00,WeatherDisplay:10.37,2013-05-14 12:33:00,
2013-05-14 08:38:00,51.6,31.5,30.05,North,350,4.6,9.2,46,0.00,-RA,OVC,0.00,WeatherDisplay:10.37,2013-05-14 12:38:00,
2013-05-14 08:43:00,51.7,31.0,30.05,NNE,25,1.3,4.6,45,0.00,-RA,OVC,0.00,WeatherDisplay:10.37,2013-05-14 12:43:00,
2013-05-14 08:48:00,52.7,31.9,30.05,North,1,2.3,2.3,45,0.00,-RA,OVC,0.00,WeatherDisplay:10.37,2013-05-14 12:48:00,
2013-05-14 08:53:00,53.2,30.1,30.05,NNE,20,7.9,13.8,41,0.00,-RA,OVC,0.00,WeatherDisplay:10.37,2013-05-14 12:53:00,
2013-05-14 08:58:00,53.7,29.9,30.04,NNE,15,2.1,4.6,40,0.00,-RA,OVC,0.00,WeatherDisplay:10.37,2013-05-14 12:58:00,
2013-05-14 09:03:00,54.5,29.4,30.04,North,2,4.0,8.1,38,0.00,-RA,OVC,0.00,WeatherDisplay:10.37,2013-05-14 13:03:00,
2013-05-14 09:08:00,55.0,31.1,30.04,North,10,2.2,4.0,40,0.00,-RA,OVC,0.00,WeatherDisplay:10.37,2013-05-14 13:08:00,
2013-05-14 09:13:00,54.7,28.2,30.04,North,357,5.4,10.4,36,0.00,-RA,OVC,0.00,WeatherDisplay:10.37,2013-05-14 13:13:00,
2013-05-14 09:18:00,54.9,27.7,30.04,NNW,339,7.4,13.0,35,0.00,-RA,OVC,0.00,WeatherDisplay:10.37,2013-05-14 13:18:00,
2013-05-14 09:23:00,54.5,28.7,30.04,NNW,332,3.4,6.9,37,0.00,-RA,OVC,0.00,WeatherDisplay:10.37,2013-05-14 13:23:00,
2013-05-14 09:28:00,54.5,28.1,30.04,North,4,5.9,8.1,36,0.00,-RA,OVC,0.00,WeatherDisplay:10.37,2013-05-14 13:28:00,
2013-05-14 09:33:00,54.6,28.8,30.04,NW,309,3.9,8.1,37,0.00,-RA,OVC,0.00,WeatherDisplay:10.37,2013-05-14 13:33:00,
2013-05-14 09:38:00,53.9,26.1,30.04,North,359,5.1,5.8,34,0.00,-RA,OVC,0.00,WeatherDisplay:10.37,2013-05-14 13:38:00,
2013-05-14 09:43:00,53.8,26.8,30.04,NNW,337,6.0,8.1,35,0.00,-RA,OVC,0.00,WeatherDisplay:10.37,2013-05-14 13:43:00,
2013-05-14 09:48:00,53.3,27.7,30.04,NW,306,1.8,8.1,37,0.00,-RA,OVC,0.00,WeatherDisplay:10.37,2013-05-14 13:48:00,
2013-05-14 09:53:00,54.1,27.0,30.03,NW,309,5.1,6.9,35,0.00,-RA,OVC,0.00,WeatherDisplay:10.37,2013-05-14 13:53:00,
2013-05-14 09:58:00,55.5,28.3,30.03,NNW,332,4.7,6.9,35,0.00,-RA,OVC,0.00,WeatherDisplay:10.37,2013-05-14 13:58:00,
2013-05-14 10:03:00,56.1,28.8,30.03,North,355,5.6,6.9,35,0.00,-RA,OVC,0.00,WeatherDisplay:10.37,2013-05-14 14:03:00,
2013-05-14 10:08:00,56.2,27.4,30.03,NNE,17,2.9,9.2,33,0.00,-RA,OVC,0.00,WeatherDisplay:10.37,2013-05-14 14:08:00,
2013-05-14 10:13:00,56.3,27.5,30.03,NNW,343,8.9,15.0,33,0.00,-RA,OVC,0.00,WeatherDisplay:10.37,2013-05-14 14:13:00,
2013-05-14 10:18:00,56.3,26.8,30.02,NNW,348,8.0,11.5,32,0.00,-RA,OVC,0.00,WeatherDisplay:10.37,2013-05-14 14:18:00,
2013-05-14 10:23:00,56.7,27.9,30.03,North,5,7.2,10.4,33,0.00,-RA,OVC,0.00,WeatherDisplay:10.37,2013-05-14 14:23:00,
2013-05-14 10:28:00,56.6,27.8,30.03,NNE,19,5.9,8.1,33,0.00,-RA,OVC,0.00,WeatherDisplay:10.37,2013-05-14 14:28:00,
2013-05-14 10:33:00,56.0,27.3,30.02,NW,312,4.7,6.9,33,0.00,-RA,OVC,0.00,WeatherDisplay:10.37,2013-05-14 14:33:00,
2013-05-14 10:38:00,56.4,26.1,30.02,NNW,343,5.4,6.9,31,0.00,-RA,OVC,0.00,WeatherDisplay:10.37,2013-05-14 14:38:00,
2013-05-14 10:43:00,57.8,28.1,30.02,North,353,7.4,10.4,32,0.00,-RA,OVC,0.00,WeatherDisplay:10.37,2013-05-14 14:43:00,
2013-05-14 10:48:00,57.0,27.4,30.02,North,354,4.3,6.9,32,0.00,-RA,OVC,0.00,WeatherDisplay:10.37,2013-05-14 14:48:00,
2013-05-14 10:54:00,55.7,26.3,30.02,NNW,336,6.7,13.8,32,0.00,-RA,OVC,0.00,WeatherDisplay:10.37,2013-05-14 14:54:00,
2013-05-14 10:59:00,55.2,27.3,30.03,NNW,345,3.4,8.1,34,0.00,-RA,OVC,0.00,WeatherDisplay:10.37,2013-05-14 14:59:00,
2013-05-14 11:04:00,56.5,27.7,30.02,WNW,297,3.9,5.8,33,0.00,-RA,OVC,0.00,WeatherDisplay:10.37,2013-05-14 15:04:00,
2013-05-14 11:09:00,56.6,27.8,30.02,North,9,5.1,10.4,33,0.00,-RA,OVC,0.00,WeatherDisplay:10.37,2013-05-14 15:09:00,
2013-05-14 11:14:00,56.5,27.7,30.02,NW,326,3.8,5.8,33,0.00,-RA,OVC,0.00,WeatherDisplay:10.37,2013-05-14 15:14:00,
2013-05-14 11:19:00,56.6,27.0,30.02,NNW,340,6.2,10.4,32,0.00,-RA,OVC,0.00,WeatherDisplay:10.37,2013-05-14 15:19:00,
2013-05-14 11:24:00,56.2,27.4,30.02,West,280,7.5,11.5,33,0.00,-RA,OVC,0.00,WeatherDisplay:10.37,2013-05-14 15:24:00,
2013-05-14 11:29:00,55.1,26.5,30.03,NNE,19,9.6,16.1,33,0.00,-RA,OVC,0.00,WeatherDisplay:10.37,2013-05-14 15:29:00,
2013-05-14 11:34:00,54.9,27.7,30.03,North,357,3.7,5.8,35,0.00,-RA,OVC,0.00,WeatherDisplay:10.37,2013-05-14 15:34:00,
2013-05-14 11:39:00,56.7,29.3,30.02,WNW,292,4.3,8.1,35,0.00,-RA,OVC,0.00,WeatherDisplay:10.37,2013-05-14 15:39:00,
2013-05-14 11:44:00,56.5,28.4,30.02,SW,234,6.6,10.4,34,0.00,-RA,OVC,0.00,WeatherDisplay:10.37,2013-05-14 15:44:00,
2013-05-14 11:49:00,56.0,28.7,30.02,WNW,299,7.1,13.0,35,0.00,-RA,OVC,0.00,WeatherDisplay:10.37,2013-05-14 15:49:00,
2013-05-14 11:54:00,56.6,30.6,30.02,North,2,1.7,3.5,37,0.00,-RA,OVC,0.00,WeatherDisplay:10.37,2013-05-14 15:54:00,
2013-05-14 11:59:00,59.0,30.6,30.02,NNE,14,3.7,8.0,34,0.00,-RA,OVC,0.00,WeatherDisplay:10.37,2013-05-14 15:59:00,
2013-05-14 12:04:00,58.1,28.4,30.02,NNE,17,2.8,10.4,32,0.00,-RA,OVC,0.00,WeatherDisplay:10.37,2013-05-14 16:04:00,
2013-05-14 12:09:00,57.2,26.8,30.02,WNW,300,6.2,11.5,31,0.00,-RA,OVC,0.00,WeatherDisplay:10.37,2013-05-14 16:09:00,
2013-05-14 12:14:00,57.3,28.4,30.02,North,358,3.1,5.8,33,0.00,-RA,OVC,0.00,WeatherDisplay:10.37,2013-05-14 16:14:00,
2013-05-14 12:19:00,58.5,29.5,30.02,WSW,258,4.5,4.5,33,0.00,-RA,OVC,0.00,WeatherDisplay:10.37,2013-05-14 16:19:00,
2013-05-14 12:24:00,56.8,24.8,30.02,NW,321,10.3,16.1,29,0.00,-RA,OVC,0.00,WeatherDisplay:10.37,2013-05-14 16:24:00,
2013-05-14 12:29:00,58.1,29.8,30.02,ENE,67,1.9,3.5,34,0.00,-RA,OVC,0.00,WeatherDisplay:10.37,2013-05-14 16:29:00,
2013-05-14 12:34:00,58.7,27.3,30.01,NNE,20,2.5,6.9,30,0.00,-RA,OVC,0.00,WeatherDisplay:10.37,2013-05-14 16:34:00,
2013-05-14 12:39:00,58.0,26.7,30.02,West,272,7.2,11.5,30,0.00,-RA,OVC,0.00,WeatherDisplay:10.37,2013-05-14 16:39:00,
2013-05-14 12:44:00,57.7,28.0,30.01,North,6,4.8,6.9,32,0.00,-RA,OVC,0.00,WeatherDisplay:10.37,2013-05-14 16:44:00,
2013-05-14 12:49:00,58.9,27.5,30.01,WNW,289,6.4,10.4,30,0.00,-RA,OVC,0.00,WeatherDisplay:10.37,2013-05-14 16:49:00,
2013-05-14 12:54:00,59.1,27.7,30.01,North,4,5.2,9.2,30,0.00,-RA,OVC,0.00,WeatherDisplay:10.37,2013-05-14 16:54:00,
2013-05-14 12:59:00,57.9,26.6,30.01,SW,230,7.4,9.2,30,0.00,-RA,OVC,0.00,WeatherDisplay:10.37,2013-05-14 16:59:00,
2013-05-14 13:04:00,60.3,28.7,30.00,NW,304,4.1,6.9,30,0.00,-RA,OVC,0.00,WeatherDisplay:10.37,2013-05-14 17:04:00,
2013-05-14 13:09:00,61.5,27.2,30.00,NW,322,7.1,15.0,27,0.00,-RA,OVC,0.00,WeatherDisplay:10.37,2013-05-14 17:09:00,
2013-05-14 13:14:00,62.2,30.4,30.00,WNW,299,7.0,17.3,30,0.00,-RA,OVC,0.00,WeatherDisplay:10.37,2013-05-14 17:14:00,
2013-05-14 13:19:00,62.1,29.4,30.00,West,277,8.4,11.5,29,0.00,-RA,OVC,0.00,WeatherDisplay:10.37,2013-05-14 17:19:00,
2013-05-14 13:24:00,62.6,28.1,30.00,WNW,293,6.5,13.8,27,0.00,-RA,OVC,0.00,WeatherDisplay:10.37,2013-05-14 17:24:00,
2013-05-14 13:29:00,63.4,28.8,30.00,North,354,8.0,13.8,27,0.00,-RA,OVC,0.00,WeatherDisplay:10.37,2013-05-14 17:29:00,
2013-05-14 13:34:00,63.0,29.4,30.00,NW,312,2.6,4.0,28,0.00,-RA,OVC,0.00,WeatherDisplay:10.37,2013-05-14 17:34:00,
2013-05-14 13:39:00,63.1,26.7,30.00,NW,314,8.1,8.1,25,0.00,-RA,OVC,0.00,WeatherDisplay:10.37,2013-05-14 17:39:00,
2013-05-14 13:44:00,63.2,30.4,30.00,WSW,242,6.3,11.5,29,0.00,-RA,OVC,0.00,WeatherDisplay:10.37,2013-05-14 17:44:00,
2013-05-14 13:49:00,62.1,27.7,30.00,NW,318,7.0,13.8,27,0.00,-RA,OVC,0.00,WeatherDisplay:10.37,2013-05-14 17:49:00,
2013-05-14 13:54:00,61.4,27.1,30.00,WSW,238,6.4,10.4,27,0.00,-RA,OVC,0.00,WeatherDisplay:10.37,2013-05-14 17:54:00,
2013-05-14 13:59:00,63.2,30.4,29.99,SW,218,8.4,12.7,29,0.00,-RA,OVC,0.00,WeatherDisplay:10.37,2013-05-14 17:59:00,
2013-05-14 14:04:00,63.2,28.6,29.99,North,353,2.8,5.8,27,0.00,-RA,OVC,0.00,WeatherDisplay:10.37,2013-05-14 18:04:00,
2013-05-14 14:09:00,61.8,27.4,30.00,WNW,293,7.6,11.5,27,0.00,-RA,OVC,0.00,WeatherDisplay:10.37,2013-05-14 18:09:00,
2013-05-14 14:14:00,62.8,30.9,30.00,WNW,286,9.2,15.0,30,0.00,-RA,OVC,0.00,WeatherDisplay:10.37,2013-05-14 18:14:00,
2013-05-14 14:19:00,64.2,28.6,30.00,NW,315,5.3,9.2,26,0.00,-RA,OVC,0.00,WeatherDisplay:10.37,2013-05-14 18:19:00,
2013-05-14 14:24:00,63.4,28.8,30.00,West,272,7.8,13.8,27,0.00,-RA,OVC,0.00,WeatherDisplay:10.37,2013-05-14 18:24:00,
2013-05-14 14:29:00,62.1,27.7,30.00,NW,304,4.6,6.9,27,0.00,-RA,OVC,0.00,WeatherDisplay:10.37,2013-05-14 18:29:00,
2013-05-14 14:34:00,61.2,26.0,30.00,West,276,4.5,10.4,26,0.00,-RA,OVC,0.00,WeatherDisplay:10.37,2013-05-14 18:34:00,
2013-05-14 14:39:00,61.6,27.3,30.00,WNW,293,3.8,8.1,27,0.00,-RA,OVC,0.00,WeatherDisplay:10.37,2013-05-14 18:39:00,
2013-05-14 14:44:00,61.5,27.2,30.00,NW,312,3.1,11.5,27,0.00,-RA,OVC,0.00,WeatherDisplay:10.37,2013-05-14 18:44:00,
2013-05-14 14:49:00,61.4,27.1,29.99,NW,325,5.0,10.4,27,0.00,-RA,OVC,0.00,WeatherDisplay:10.37,2013-05-14 18:49:00,
2013-05-14 14:54:00,60.9,24.8,29.99,NNE,22,6.9,11.5,25,0.00,-RA,OVC,0.00,WeatherDisplay:10.37,2013-05-14 18:54:00,
2013-05-14 14:59:00,60.3,26.1,29.99,WNW,288,4.6,8.1,27,0.00,-RA,OVC,0.00,WeatherDisplay:10.37,2013-05-14 18:59:00,
2013-05-14 15:04:00,60.1,25.1,29.98,NNE,22,5.9,10.4,26,0.00,-RA,OVC,0.00,WeatherDisplay:10.37,2013-05-14 19:04:00,
2013-05-14 15:09:00,61.2,26.9,29.99,NNW,329,4.4,8.1,27,0.00,-RA,OVC,0.00,WeatherDisplay:10.37,2013-05-14 19:09:00,
2013-05-14 15:14:00,61.1,26.8,29.98,WSW,254,6.5,8.1,27,0.00,-RA,OVC,0.00,WeatherDisplay:10.37,2013-05-14 19:14:00,
2013-05-14 15:19:00,60.8,26.6,29.98,WNW,286,4.3,10.4,27,0.00,-RA,OVC,0.00,WeatherDisplay:10.37,2013-05-14 19:19:00,
2013-05-14 15:24:00,61.0,26.7,29.98,WNW,282,4.9,8.1,27,0.00,-RA,OVC,0.00,WeatherDisplay:10.37,2013-05-14 19:24:00,
2013-05-14 15:29:00,61.5,28.9,29.98,West,266,5.9,6.9,29,0.00,-RA,OVC,0.00,WeatherDisplay:10.37,2013-05-14 19:29:00,
2013-05-14 15:34:00,61.9,27.5,29.98,NW,322,5.4,11.5,27,0.00,-RA,OVC,0.00,WeatherDisplay:10.37,2013-05-14 19:34:00,
2013-05-14 15:39:00,61.0,24.9,29.97,WNW,290,6.0,0.0,25,0.00,-RA,OVC,0.00,WeatherDisplay:10.37,2013-05-14 19:39:00,
2013-05-14 15:44:00,61.0,26.7,29.97,WSW,257,4.6,8.1,27,0.00,-RA,OVC,0.00,WeatherDisplay:10.37,2013-05-14 19:44:00,
2013-05-14 15:49:00,61.1,24.9,29.97,WNW,302,9.0,0.0,25,0.00,-RA,OVC,0.00,WeatherDisplay:10.37,2013-05-14 19:49:00,
2013-05-14 15:54:00,60.2,26.1,29.98,WNW,284,5.3,8.1,27,0.00,-RA,OVC,0.00,WeatherDisplay:10.37,2013-05-14 19:54:00,
2013-05-14 15:59:00,61.2,28.7,29.97,North,2,1.7,6.9,29,0.00,-RA,OVC,0.00,WeatherDisplay:10.37,2013-05-14 19:59:00,
2013-05-14 16:04:00,61.8,25.6,29.97,NNW,330,4.7,8.1,25,0.00,-RA,OVC,0.00,WeatherDisplay:10.37,2013-05-14 20:04:00,
2013-05-14 16:09:00,61.2,25.1,29.97,NW,312,6.7,10.4,25,0.00,-RA,OVC,0.00,WeatherDisplay:10.37,2013-05-14 20:09:00,
2013-05-14 16:14:00,60.2,25.1,29.97,NNW,348,3.7,5.8,26,0.00,-RA,OVC,0.00,WeatherDisplay:10.37,2013-05-14 20:14:00,
2013-05-14 16:19:00,60.0,25.0,29.97,NNW,335,4.9,5.8,26,0.00,-RA,OVC,0.00,WeatherDisplay:10.37,2013-05-14 20:19:00,
2013-05-14 16:24:00,60.0,25.0,29.97,NW,310,6.0,10.4,26,0.00,-RA,OVC,0.00,WeatherDisplay:10.37,2013-05-14 20:24:00,
2013-05-14 16:29:00,60.4,26.2,29.97,WSW,246,3.9,9.2,27,0.00,-RA,OVC,0.00,WeatherDisplay:10.37,2013-05-14 20:29:00,
2013-05-14 16:35:00,60.1,26.0,29.97,North,359,3.1,4.6,27,0.00,-RA,OVC,0.00,WeatherDisplay:10.37,2013-05-14 20:35:00,
2013-05-14 16:40:00,59.7,24.7,29.97,WSW,248,7.0,11.5,26,0.00,-RA,OVC,0.00,WeatherDisplay:10.37,2013-05-14 20:40:00,
2013-05-14 16:45:00,59.7,25.6,29.97,NNW,335,4.6,8.1,27,0.00,-RA,OVC,0.00,WeatherDisplay:10.37,2013-05-14 20:45:00,
2013-05-14 16:50:00,59.8,26.6,29.97,NW,307,2.3,3.5,28,0.00,-RA,OVC,0.00,WeatherDisplay:10.37,2013-05-14 20:50:00,
2013-05-14 16:55:00,59.6,24.6,29.98,NW,323,8.2,12.7,26,0.00,-RA,OVC,0.00,WeatherDisplay:10.37,2013-05-14 20:55:00,
2013-05-14 17:00:00,59.8,25.7,29.97,WNW,294,1.7,3.5,27,0.00,-RA,OVC,0.00,WeatherDisplay:10.37,2013-05-14 21:00:00,
2013-05-14 17:05:00,60.4,26.2,29.97,SW,235,7.6,10.4,27,0.00,-RA,OVC,0.00,WeatherDisplay:10.37,2013-05-14 21:05:00,
2013-05-14 17:10:00,60.2,25.1,29.97,NNW,346,6.2,8.1,26,0.00,-RA,OVC,0.00,WeatherDisplay:10.37,2013-05-14 21:10:00,
2013-05-14 17:15:00,59.6,25.5,29.97,WNW,292,4.5,8.1,27,0.00,-RA,OVC,0.00,WeatherDisplay:10.37,2013-05-14 21:15:00,
2013-05-14 17:20:00,59.0,24.1,29.97,North,11,6.0,13.8,26,0.00,-RA,OVC,0.00,WeatherDisplay:10.37,2013-05-14 21:20:00,
2013-05-14 17:25:00,58.8,23.9,29.97,NNW,347,3.9,9.2,26,0.00,-RA,OVC,0.00,WeatherDisplay:10.37,2013-05-14 21:25:00,
2013-05-14 17:30:00,59.2,24.3,29.97,North,354,3.7,6.9,26,0.00,-RA,OVC,0.00,WeatherDisplay:10.37,2013-05-14 21:30:00,
2013-05-14 17:35:00,59.6,24.6,29.97,North,354,2.8,8.1,26,0.00,-RA,OVC,0.00,WeatherDisplay:10.37,2013-05-14 21:35:00,
2013-05-14 17:40:00,59.7,25.6,29.97,NW,304,6.3,11.5,27,0.00,-RA,OVC,0.00,WeatherDisplay:10.37,2013-05-14 21:40:00,
2013-05-14 17:45:00,59.9,25.8,29.97,NW,309,6.5,11.5,27,0.00,-RA,OVC,0.00,WeatherDisplay:10.37,2013-05-14 21:45:00,
2013-05-14 17:50:00,59.7,24.7,29.96,WNW,296,6.9,11.5,26,0.00,-RA,OVC,0.00,WeatherDisplay:10.37,2013-05-14 21:50:00,
2013-05-14 17:55:00,59.5,25.5,29.96,West,277,2.8,3.5,27,0.00,-RA,OVC,0.00,WeatherDisplay:10.37,2013-05-14 21:55:00,
2013-05-14 18:00:00,59.0,25.0,29.97,NW,312,3.8,6.9,27,0.00,-RA,OVC,0.00,WeatherDisplay:10.37,2013-05-14 22:00:00,
2013-05-14 18:05:00,58.6,24.7,29.97,WSW,252,3.5,5.8,27,0.00,-RA,OVC,0.00,WeatherDisplay:10.37,2013-05-14 22:05:00,
2013-05-14 18:10:00,58.7,24.8,29.97,North,6,5.0,8.1,27,0.00,-RA,OVC,0.00,WeatherDisplay:10.37,2013-05-14 22:10:00,
2013-05-14 18:15:00,59.1,25.1,29.96,WNW,289,6.0,8.1,27,0.00,-RA,OVC,0.00,WeatherDisplay:10.37,2013-05-14 22:15:00,
2013-05-14 18:16:00,34.9,31.1,30.06,WNW,282,0.0,0.0,86,0.00,-RA,OVC,0.00,WeatherDisplay:10.37,2013-05-14 22:16:00,
2013-05-14 18:17:00,34.9,31.1,30.06,WNW,282,0.0,0.0,86,0.00,-RA,OVC,0.00,WeatherDisplay:10.37,2013-05-14 22:17:00,
2013-05-14 18:18:00,34.9,31.1,30.06,WNW,282,0.0,0.0,86,0.00,-RA,OVC,0.00,WeatherDisplay:10.37,2013-05-14 22:18:00,
2013-05-14 18:19:00,34.9,31.1,30.06,WNW,282,0.0,0.0,86,0.00,-RA,OVC,0.00,WeatherDisplay:10.37,2013-05-14 22:19:00,
2013-05-14 18:20:00,58.6,24.7,29.97,NNE,17,3.4,5.8,27,0.00,-RA,OVC,0.00,WeatherDisplay:10.37,2013-05-14 22:20:00,
2013-05-14 18:25:00,58.1,24.3,29.97,NW,305,2.6,4.0,27,0.00,-RA,OVC,0.00,WeatherDisplay:10.37,2013-05-14 22:25:00,
2013-05-14 18:30:00,57.7,23.9,29.97,West,281,4.1,6.9,27,0.00,-RA,OVC,0.00,WeatherDisplay:10.37,2013-05-14 22:30:00,
2013-05-14 18:35:00,57.0,23.3,29.97,NW,309,3.6,4.6,27,0.00,-RA,OVC,0.00,WeatherDisplay:10.37,2013-05-14 22:35:00,
2013-05-14 18:40:00,56.7,23.9,29.97,WNW,302,4.1,6.9,28,0.00,-RA,OVC,0.00,WeatherDisplay:10.37,2013-05-14 22:40:00,
2013-05-14 18:45:00,56.2,22.6,29.97,NW,312,4.2,5.8,27,0.00,-RA,OVC,0.00,WeatherDisplay:10.37,2013-05-14 22:45:00,
2013-05-14 18:50:00,57.2,23.5,29.97,WSW,258,5.7,8.1,27,0.00,-RA,OVC,0.00,WeatherDisplay:10.37,2013-05-14 22:50:00,
2013-05-14 18:55:00,56.8,23.1,29.98,NW,307,2.6,3.5,27,0.00,-RA,OVC,0.00,WeatherDisplay:10.37,2013-05-14 22:55:00,
2013-05-14 19:00:00,58.0,25.0,29.98,WSW,254,1.8,3.5,28,0.00,-RA,OVC,0.00,WeatherDisplay:10.37,2013-05-14 23:00:00,
2013-05-14 19:05:00,59.9,25.8,29.98,West,259,1.2,4.6,27,0.00,-RA,OVC,0.00,WeatherDisplay:10.37,2013-05-14 23:05:00,
2013-05-14 19:10:00,61.5,27.2,29.98,West,260,2.4,4.6,27,0.00,-RA,OVC,0.00,WeatherDisplay:10.37,2013-05-14 23:10:00,
2013-05-14 19:15:00,61.9,27.5,29.98,West,272,0.9,2.3,27,0.00,-RA,OVC,0.00,WeatherDisplay:10.37,2013-05-14 23:15:00,
2013-05-14 19:20:00,59.9,25.8,29.98,West,272,0.9,2.3,27,0.00,-RA,OVC,0.00,WeatherDisplay:10.37,2013-05-14 23:20:00,
2013-05-14 19:25:00,58.0,26.7,29.98,West,267,2.1,3.5,30,0.00,-RA,OVC,0.00,WeatherDisplay:10.37,2013-05-14 23:25:00,
2013-05-14 19:30:00,56.8,24.8,29.98,West,277,1.4,5.8,29,0.00,-RA,OVC,0.00,WeatherDisplay:10.37,2013-05-14 23:30:00,
2013-05-14 19:35:00,55.8,26.3,29.99,West,278,1.4,2.3,32,0.00,-RA,OVC,0.00,WeatherDisplay:10.37,2013-05-14 23:35:00,
2013-05-14 19:40:00,55.1,25.0,29.99,West,281,2.5,4.6,31,0.00,-RA,OVC,0.00,WeatherDisplay:10.37,2013-05-14 23:40:00,
2013-05-14 19:45:00,54.6,26.8,29.99,West,281,2.0,3.5,34,0.00,-RA,OVC,0.00,WeatherDisplay:10.37,2013-05-14 23:45:00,
2013-05-14 19:50:00,54.2,27.1,29.99,West,281,2.1,3.5,35,0.00,-RA,OVC,0.00,WeatherDisplay:10.37,2013-05-14 23:50:00,
2013-05-14 19:55:00,53.9,27.5,29.99,West,281,2.1,3.5,36,0.00,-RA,OVC,0.00,WeatherDisplay:10.37,2013-05-14 23:55:00,
2013-05-14 20:00:00,53.5,25.8,29.99,West,281,2.0,3.5,34,0.00,-RA,OVC,0.00,WeatherDisplay:10.37,2013-05-15 00:00:00,
2013-05-14 20:05:00,52.9,26.0,29.99,West,281,0.4,2.3,35,0.00,-RA,OVC,0.00,WeatherDisplay:10.37,2013-05-15 00:05:00,
2013-05-14 20:10:00,52.4,24.8,29.99,West,281,0.2,1.1,34,0.00,-RA,OVC,0.00,WeatherDisplay:10.37,2013-05-15 00:10:00,
2013-05-14 20:15:00,51.8,25.0,30.00,West,281,0.6,1.1,35,0.00,-RA,OVC,0.00,WeatherDisplay:10.37,2013-05-15 00:15:00,
2013-05-14 20:20:00,51.5,26.1,30.00,WNW,283,0.9,5.8,37,0.00,-RA,OVC,0.00,WeatherDisplay:10.37,2013-05-15 00:20:00,
2013-05-14 20:25:00,51.1,25.7,30.00,WNW,283,2.5,2.5,37,0.00,-RA,OVC,0.00,WeatherDisplay:10.37,2013-05-15 00:25:00,
2013-05-14 20:30:00,50.8,26.1,30.00,WNW,283,1.9,3.5,38,0.00,-RA,OVC,0.00,WeatherDisplay:10.37,2013-05-15 00:30:00,
2013-05-14 20:35:00,50.4,25.7,30.00,WNW,283,0.4,1.1,38,0.00,-RA,OVC,0.00,WeatherDisplay:10.37,2013-05-15 00:35:00,
2013-05-14 20:40:00,50.2,25.5,30.01,WNW,283,2.8,2.8,38,0.00,-RA,OVC,0.00,WeatherDisplay:10.37,2013-05-15 00:40:00,
2013-05-14 20:45:00,49.9,25.3,30.01,WNW,282,0.7,1.1,38,0.00,-RA,OVC,0.00,WeatherDisplay:10.37,2013-05-15 00:45:00,
2013-05-14 20:50:00,49.8,25.8,30.01,WNW,283,0.2,0.0,39,0.00,-RA,OVC,0.00,WeatherDisplay:10.37,2013-05-15 00:50:00,
2013-05-14 20:55:00,49.5,25.5,30.01,WNW,283,1.5,2.3,39,0.00,-RA,OVC,0.00,WeatherDisplay:10.37,2013-05-15 00:55:00,
2013-05-14 21:00:00,49.3,26.0,30.02,WNW,283,0.4,2.3,40,0.00,-RA,OVC,0.00,WeatherDisplay:10.37,2013-05-15 01:00:00,
2013-05-14 21:05:00,49.3,26.6,30.02,WNW,283,0.6,2.3,41,0.00,-RA,OVC,0.00,WeatherDisplay:10.37,2013-05-15 01:05:00,
2013-05-14 21:10:00,49.3,26.6,30.02,WNW,283,0.9,1.1,41,0.00,-RA,OVC,0.00,WeatherDisplay:10.37,2013-05-15 01:10:00,
2013-05-14 21:15:00,49.2,26.5,30.02,WNW,282,0.9,2.3,41,0.00,-RA,OVC,0.00,WeatherDisplay:10.37,2013-05-15 01:15:00,
2013-05-14 21:20:00,49.2,27.1,30.02,WNW,283,0.3,2.3,42,0.00,-RA,OVC,0.00,WeatherDisplay:10.37,2013-05-15 01:20:00,
2013-05-14 21:25:00,49.2,27.6,30.03,WNW,283,1.0,2.3,43,0.00,-RA,OVC,0.00,WeatherDisplay:10.37,2013-05-15 01:25:00,
2013-05-14 21:30:00,49.0,27.5,30.03,WNW,283,0.9,2.3,43,0.00,-RA,OVC,0.00,WeatherDisplay:10.37,2013-05-15 01:30:00,
2013-05-14 21:35:00,48.6,27.6,30.03,WNW,282,1.5,3.5,44,0.00,-RA,OVC,0.00,WeatherDisplay:10.37,2013-05-15 01:35:00,
2013-05-14 21:40:00,48.4,27.5,30.03,WNW,283,1.7,3.5,44,0.00,-RA,OVC,0.00,WeatherDisplay:10.37,2013-05-15 01:40:00,
2013-05-14 21:45:00,48.3,27.4,30.03,WNW,282,1.5,3.5,44,0.00,-RA,OVC,0.00,WeatherDisplay:10.37,2013-05-15 01:45:00,
2013-05-14 21:50:00,48.3,27.9,30.03,WNW,282,3.6,4.6,45,0.00,-RA,OVC,0.00,WeatherDisplay:10.37,2013-05-15 01:50:00,
2013-05-14 21:55:00,48.1,27.2,30.03,WNW,282,2.0,3.5,44,0.00,-RA,OVC,0.00,WeatherDisplay:10.37,2013-05-15 01:55:00,
2013-05-14 22:00:00,47.9,27.0,30.03,WNW,282,0.4,1.1,44,0.00,-RA,OVC,0.00,WeatherDisplay:10.37,2013-05-15 02:00:00,
2013-05-14 22:05:00,47.8,27.5,30.03,WNW,282,0.0,1.1,45,0.00,-RA,OVC,0.00,WeatherDisplay:10.37,2013-05-15 02:05:00,
2013-05-14 22:10:00,47.4,27.6,30.03,WNW,282,2.1,3.5,46,0.00,-RA,OVC,0.00,WeatherDisplay:10.37,2013-05-15 02:10:00,
2013-05-14 22:15:00,47.2,27.5,30.03,WNW,282,1.0,2.3,46,0.00,-RA,OVC,0.00,WeatherDisplay:10.37,2013-05-15 02:15:00,
2013-05-14 22:20:00,47.1,27.4,30.03,WNW,282,0.7,2.3,46,0.00,-RA,OVC,0.00,WeatherDisplay:10.37,2013-05-15 02:20:00,
2013-05-14 22:26:00,46.9,27.7,30.03,WNW,282,0.4,1.1,47,0.00,-RA,OVC,0.00,WeatherDisplay:10.37,2013-05-15 02:26:00,
2013-05-14 22:31:00,46.7,27.5,30.03,WNW,282,1.5,2.3,47,0.00,-RA,OVC,0.00,WeatherDisplay:10.37,2013-05-15 02:31:00,
2013-05-14 22:36:00,46.5,27.8,30.03,WNW,282,0.0,0.0,48,0.00,-RA,OVC,0.00,WeatherDisplay:10.37,2013-05-15 02:36:00,
2013-05-14 22:41:00,46.1,29.0,30.03,WNW,282,0.0,1.1,51,0.00,-RA,OVC,0.00,WeatherDisplay:10.37,2013-05-15 02:41:00,
2013-05-14 22:46:00,46.0,29.3,30.03,WNW,282,0.0,0.0,52,0.00,-RA,OVC,0.00,WeatherDisplay:10.37,2013-05-15 02:46:00,
2013-05-14 22:51:00,45.5,29.3,30.03,WNW,282,0.0,0.0,53,0.00,-RA,OVC,0.00,WeatherDisplay:10.37,2013-05-15 02:51:00,
2013-05-14 22:56:00,45.3,29.6,30.03,WNW,282,0.0,0.0,54,0.00,-RA,OVC,0.00,WeatherDisplay:10.37,2013-05-15 02:56:00,
2013-05-14 23:01:00,44.8,29.2,30.03,WNW,282,0.0,0.0,54,0.00,-RA,OVC,0.00,WeatherDisplay:10.37,2013-05-15 03:01:00,
2013-05-14 23:06:00,44.7,30.0,30.03,WNW,282,0.0,0.0,56,0.00,-RA,OVC,0.00,WeatherDisplay:10.37,2013-05-15 03:06:00,
2013-05-14 23:11:00,44.5,30.2,30.03,WNW,282,0.4,1.1,57,0.00,-RA,OVC,0.00,WeatherDisplay:10.37,2013-05-15 03:11:00,
2013-05-14 23:16:00,44.2,29.9,30.03,WNW,282,0.0,0.0,57,0.00,-RA,OVC,0.00,WeatherDisplay:10.37,2013-05-15 03:16:00,
2013-05-14 23:21:00,43.9,30.1,30.03,WNW,282,0.0,0.0,58,0.00,-RA,OVC,0.00,WeatherDisplay:10.37,2013-05-15 03:21:00,
2013-05-14 23:26:00,43.8,30.0,30.03,WNW,282,0.0,0.0,58,0.00,-RA,OVC,0.00,WeatherDisplay:10.37,2013-05-15 03:26:00,
2013-05-14 23:31:00,43.4,30.0,30.03,WNW,282,0.0,0.0,59,0.00,-RA,OVC,0.00,WeatherDisplay:10.37,2013-05-15 03:31:00,
2013-05-14 23:36:00,43.1,30.1,30.04,WNW,282,0.0,0.0,60,0.00,-RA,OVC,0.00,WeatherDisplay:10.37,2013-05-15 03:36:00,
2013-05-14 23:41:00,42.9,30.4,30.04,WNW,282,0.0,0.0,61,0.00,-RA,OVC,0.00,WeatherDisplay:10.37,2013-05-15 03:41:00,
2013-05-14 23:46:00,42.8,30.3,30.04,WNW,282,0.0,0.0,61,0.00,-RA,OVC,0.00,WeatherDisplay:10.37,2013-05-15 03:46:00,
2013-05-14 23:51:00,42.5,30.0,30.04,WNW,282,0.0,0.0,61,0.00,-RA,OVC,0.00,WeatherDisplay:10.37,2013-05-15 03:51:00,
2013-05-14 23:56:00,42.2,30.1,30.04,WNW,282,0.0,0.0,62,0.00,-RA,OVC,0.00,WeatherDisplay:10.37,2013-05-15 03:56:00,